Time;durP1;ratioP1;P1;durP2;ratioP2;P2;SDS_P1;SDS_P2;PMS_P1;PMS_P2;Temp;Humidity;BMP_temperature;BMP_pressure;BME280_temperature;BME280_humidity;BME280_pressure;Samples;Min_cycle;Max_cycle;Signal;HPM_P1;HPM_P2
2022/09/29 00:01:58;;;;;;;10.10;9.80;;;6.90;99.90;;;;;;5150804;27;20227;-82
2022/09/29 00:04:27;;;;;;;10.17;9.87;;;6.80;99.90;;;;;;5147741;27;20275;-82
2022/09/29 00:06:58;;;;;;;10.60;10.30;;;6.80;99.90;;;;;;5146872;27;20228;-82
2022/09/29 00:09:26;;;;;;;10.37;10.07;;;6.80;99.90;;;;;;5146301;27;20319;-82
2022/09/29 00:11:55;;;;;;;10.50;10.20;;;6.80;99.90;;;;;;5153766;27;20234;-82
2022/09/29 00:14:24;;;;;;;10.80;10.50;;;6.70;99.90;;;;;;5145893;27;20236;-82
2022/09/29 00:16:54;;;;;;;10.30;10.00;;;6.80;99.90;;;;;;5145825;27;20324;-82
2022/09/29 00:19:24;;;;;;;10.40;10.10;;;6.80;99.90;;;;;;5145553;27;20242;-83
2022/09/29 00:21:53;;;;;;;10.70;10.40;;;6.70;99.90;;;;;;5145872;27;20236;-82
2022/09/29 00:24:34;;;;;;;10.67;10.37;;;6.70;99.90;;;;;;5145021;27;20216;-82
2022/09/29 00:27:03;;;;;;;10.27;9.97;;;6.70;99.90;;;;;;5144860;27;20262;-81
2022/09/29 00:29:32;;;;;;;10.20;9.90;;;6.60;99.90;;;;;;5144832;27;20255;-81
2022/09/29 00:32:01;;;;;;;10.30;10.00;;;6.70;99.90;;;;;;5144241;27;20315;-82
2022/09/29 00:34:31;;;;;;;10.40;10.10;;;6.70;99.90;;;;;;5144182;27;20315;-83
2022/09/29 00:37:00;;;;;;;10.20;9.90;;;6.70;99.90;;;;;;5144348;27;20243;-82
2022/09/29 00:39:31;;;;;;;10.40;10.10;;;6.70;99.90;;;;;;5144103;27;20231;-82
2022/09/29 00:41:59;;;;;;;10.03;9.73;;;6.70;99.90;;;;;;5144355;27;20230;-82
2022/09/29 00:45:14;;;;;;;10.50;10.20;;;6.70;99.90;;;;;;5150349;27;20220;-82
2022/09/29 00:47:43;;;;;;;10.30;10.00;;;6.70;99.90;;;;;;5144657;27;20303;-82
2022/09/29 00:50:20;;;;;;;10.23;9.93;;;6.70;99.90;;;;;;5143732;27;20242;-82
2022/09/29 00:52:52;;;;;;;10.40;10.10;;;6.70;99.90;;;;;;5143211;27;20310;-82
2022/09/29 00:55:28;;;;;;;10.60;10.30;;;6.70;99.90;;;;;;5142888;27;20288;-83
2022/09/29 00:58:00;;;;;;;10.37;10.07;;;6.70;99.90;;;;;;5142749;27;20236;-82
2022/09/29 01:00:28;;;;;;;10.30;10.00;;;6.70;99.90;;;;;;5143081;27;20240;-82
2022/09/29 01:05:52;;;;;;;10.70;10.40;;;6.70;99.90;;;;;;5142331;27;20223;-82
2022/09/29 01:08:30;;;;;;;10.37;10.07;;;6.70;99.90;;;;;;5141877;27;20224;-82
2022/09/29 01:11:09;;;;;;;10.50;10.20;;;6.80;99.90;;;;;;5142009;27;20314;-82
2022/09/29 01:13:38;;;;;;;10.30;10.00;;;6.80;99.90;;;;;;5142200;27;20212;-82
2022/09/29 01:16:08;;;;;;;10.43;10.13;;;6.80;99.90;;;;;;5142344;27;20363;-82
2022/09/29 01:18:36;;;;;;;10.20;9.90;;;6.80;99.90;;;;;;5142391;27;20261;-82
2022/09/29 01:21:14;;;;;;;10.10;9.80;;;6.80;99.90;;;;;;5142721;27;20260;-82
2022/09/29 01:24:37;;;;;;;10.27;9.97;;;6.80;99.90;;;;;;5142905;27;20246;-83
2022/09/29 01:27:24;;;;;;;10.30;10.00;;;6.80;99.90;;;;;;5112978;27;20232;-82
2022/09/29 01:30:12;;;;;;;10.37;10.07;;;6.80;99.90;;;;;;5143707;27;20238;-82
2022/09/29 01:33:26;;;;;;;10.17;9.87;;;6.70;99.90;;;;;;5145666;27;20246;-82
2022/09/29 01:36:04;;;;;;;10.10;9.80;;;6.70;99.90;;;;;;5124289;27;20234;-82
2022/09/29 01:38:55;;;;;;;10.20;9.90;;;6.70;99.90;;;;;;5142549;27;20232;-82
2022/09/29 01:41:36;;;;;;;10.20;9.90;;;6.70;99.90;;;;;;5142541;27;20234;-82
2022/09/29 01:44:10;;;;;;;10.30;10.00;;;6.70;99.90;;;;;;5142170;27;20313;-82
2022/09/29 01:46:45;;;;;;;10.20;9.90;;;6.70;99.90;;;;;;5141893;27;20220;-82
2022/09/29 01:49:16;;;;;;;10.30;10.00;;;6.70;99.90;;;;;;5141828;27;20212;-82
2022/09/29 01:51:52;;;;;;;10.17;9.87;;;6.70;99.90;;;;;;5142519;27;20561;-82
2022/09/29 01:54:40;;;;;;;10.07;9.77;;;6.70;99.90;;;;;;5141791;27;20251;-80
2022/09/29 01:57:17;;;;;;;10.23;9.93;;;6.70;99.90;;;;;;5142878;27;20244;-80
2022/09/29 01:59:52;;;;;;;10.27;9.97;;;6.70;99.90;;;;;;5142875;27;20227;-80
2022/09/29 02:02:26;;;;;;;10.27;9.97;;;6.70;99.90;;;;;;5143025;27;20235;-80
2022/09/29 02:05:03;;;;;;;10.10;9.80;;;6.70;99.90;;;;;;5142682;27;20228;-82
2022/09/29 02:07:39;;;;;;;9.90;9.60;;;6.70;99.90;;;;;;5152697;27;20220;-81
2022/09/29 02:10:14;;;;;;;9.97;9.67;;;6.70;99.90;;;;;;5143448;27;20231;-80
2022/09/29 02:12:44;;;;;;;10.00;9.70;;;6.70;99.90;;;;;;5143442;27;20280;-82
2022/09/29 02:15:20;;;;;;;10.03;9.73;;;6.70;99.90;;;;;;5141939;27;20235;-81
2022/09/29 02:17:52;;;;;;;10.40;10.10;;;6.60;99.90;;;;;;5142525;27;20238;-81
2022/09/29 02:20:21;;;;;;;10.30;10.00;;;6.70;99.90;;;;;;5142465;27;20227;-80
2022/09/29 02:22:49;;;;;;;10.20;9.90;;;6.70;99.90;;;;;;5142572;27;20291;-81
2022/09/29 02:25:19;;;;;;;10.20;9.90;;;6.60;99.90;;;;;;5141993;27;20228;-81
2022/09/29 02:27:50;;;;;;;10.17;9.87;;;6.70;99.90;;;;;;5142681;27;20250;-81
2022/09/29 02:30:19;;;;;;;10.07;9.77;;;6.60;99.90;;;;;;5142784;27;20228;-81
2022/09/29 02:32:47;;;;;;;9.90;9.60;;;6.60;99.90;;;;;;5143120;27;20304;-81
2022/09/29 02:35:16;;;;;;;10.10;9.80;;;6.60;99.90;;;;;;5143043;27;20303;-81
2022/09/29 02:38:05;;;;;;;10.10;9.80;;;6.70;99.90;;;;;;5142456;27;20220;-81
2022/09/29 02:40:50;;;;;;;10.20;9.90;;;6.70;99.90;;;;;;5143228;27;20319;-81
2022/09/29 02:43:48;;;;;;;10.00;9.70;;;6.70;99.90;;;;;;5142885;27;20228;-80
2022/09/29 02:46:36;;;;;;;10.00;9.70;;;6.70;99.90;;;;;;5142181;27;20296;-81
2022/09/29 02:49:28;;;;;;;10.13;9.83;;;6.70;99.90;;;;;;5142286;27;20267;-80
2022/09/29 02:52:00;;;;;;;9.90;9.60;;;6.60;99.90;;;;;;5142338;27;20216;-80
2022/09/29 02:54:46;;;;;;;10.07;9.77;;;6.60;99.90;;;;;;5141423;27;20228;-80
2022/09/29 02:57:24;;;;;;;10.00;9.70;;;6.60;99.90;;;;;;5141890;27;20228;-81
2022/09/29 03:00:05;;;;;;;10.13;9.83;;;6.60;99.90;;;;;;5142190;27;20259;-80
2022/09/29 03:02:32;;;;;;;9.90;9.60;;;6.60;99.90;;;;;;5142501;27;20231;-81
2022/09/29 03:05:00;;;;;;;10.10;9.80;;;6.60;99.90;;;;;;5140369;27;20654;-80
2022/09/29 03:07:31;;;;;;;10.00;9.70;;;6.60;99.90;;;;;;5145385;27;20288;-82
2022/09/29 03:10:02;;;;;;;9.97;9.67;;;6.50;99.90;;;;;;5145479;27;20238;-82
2022/09/29 03:12:30;;;;;;;10.00;9.70;;;6.50;99.90;;;;;;5146452;27;20707;-80
2022/09/29 03:14:58;;;;;;;10.00;9.70;;;6.50;99.90;;;;;;5145130;27;20224;-81
2022/09/29 03:17:27;;;;;;;9.97;9.67;;;6.50;99.90;;;;;;5146954;27;20272;-80
2022/09/29 03:19:57;;;;;;;10.00;9.70;;;6.40;99.90;;;;;;5145857;27;20239;-81
2022/09/29 03:22:27;;;;;;;9.90;9.60;;;6.50;99.90;;;;;;5145975;27;20216;-81
2022/09/29 03:24:56;;;;;;;10.00;9.70;;;6.40;99.90;;;;;;5145908;27;20315;-81
2022/09/29 03:27:28;;;;;;;10.20;9.90;;;6.40;99.90;;;;;;5146566;27;20246;-81
2022/09/29 03:29:56;;;;;;;9.83;9.53;;;6.30;99.90;;;;;;5147431;27;20228;-81
2022/09/29 03:32:24;;;;;;;9.63;9.33;;;6.30;99.90;;;;;;5146321;27;20235;-81
2022/09/29 03:34:54;;;;;;;10.00;9.70;;;6.30;99.90;;;;;;5147220;27;20319;-81
2022/09/29 03:37:23;;;;;;;9.87;9.57;;;6.30;99.90;;;;;;5145977;27;20235;-81
2022/09/29 03:39:52;;;;;;;9.70;9.40;;;6.30;99.90;;;;;;5147452;27;20236;-81
2022/09/29 03:42:23;;;;;;;9.57;9.27;;;6.20;99.90;;;;;;5146754;27;20216;-81
2022/09/29 03:44:54;;;;;;;9.70;9.40;;;6.30;99.90;;;;;;5147073;27;20220;-81
2022/09/29 03:47:22;;;;;;;9.50;9.20;;;6.20;99.90;;;;;;5151189;27;20216;-81
2022/09/29 03:49:50;;;;;;;9.50;9.20;;;6.20;99.90;;;;;;5150895;27;20227;-82
2022/09/29 03:52:20;;;;;;;9.80;9.50;;;6.20;99.90;;;;;;5157871;27;20212;-81
2022/09/29 03:54:49;;;;;;;9.70;9.40;;;6.20;99.90;;;;;;5148958;27;20311;-81
2022/09/29 03:57:19;;;;;;;9.30;9.00;;;6.20;99.90;;;;;;5150511;27;20224;-81
2022/09/29 03:59:48;;;;;;;9.53;9.23;;;6.20;99.90;;;;;;5162350;27;20267;-81
2022/09/29 04:02:27;;;;;;;9.73;9.43;;;6.20;99.90;;;;;;5161508;27;20234;-81
2022/09/29 04:04:55;;;;;;;9.90;9.60;;;6.10;99.90;;;;;;5162208;27;20284;-81
2022/09/29 04:07:25;;;;;;;10.00;9.70;;;6.10;99.90;;;;;;5160661;27;20247;-81
2022/09/29 04:09:54;;;;;;;9.93;9.63;;;6.10;99.90;;;;;;5162605;27;20216;-81
2022/09/29 04:12:24;;;;;;;9.97;9.67;;;6.10;99.90;;;;;;5162944;27;20213;-81
2022/09/29 04:14:54;;;;;;;10.10;9.80;;;6.10;99.90;;;;;;5161894;27;20327;-81
2022/09/29 04:17:26;;;;;;;10.00;9.70;;;6.20;99.90;;;;;;5159805;27;20314;-81
2022/09/29 04:19:54;;;;;;;9.90;9.60;;;6.10;99.90;;;;;;5157665;27;20232;-81
2022/09/29 04:22:22;;;;;;;10.07;9.77;;;6.10;99.90;;;;;;5162924;27;20222;-81
2022/09/29 04:24:53;;;;;;;10.10;9.80;;;6.10;99.90;;;;;;5161501;27;20232;-81
2022/09/29 04:27:23;;;;;;;9.97;9.67;;;6.00;99.90;;;;;;5162350;27;20219;-81
2022/09/29 04:29:52;;;;;;;9.80;9.50;;;6.10;99.90;;;;;;5162180;27;20218;-81
2022/09/29 04:32:23;;;;;;;9.87;9.57;;;6.00;99.90;;;;;;5162126;27;20230;-81
2022/09/29 04:34:53;;;;;;;9.83;9.53;;;6.00;99.90;;;;;;5161691;27;20256;-82
2022/09/29 04:37:21;;;;;;;9.77;9.47;;;6.00;99.90;;;;;;5162140;27;20255;-81
2022/09/29 04:39:51;;;;;;;9.80;9.50;;;6.00;99.90;;;;;;5161210;27;20232;-80
2022/09/29 04:42:19;;;;;;;9.87;9.57;;;6.00;99.90;;;;;;5161383;27;20201;-81
2022/09/29 04:44:48;;;;;;;9.80;9.50;;;6.00;99.90;;;;;;5161455;27;20292;-81
2022/09/29 04:47:19;;;;;;;9.70;9.40;;;6.00;99.90;;;;;;5161809;27;20228;-81
2022/09/29 04:49:48;;;;;;;10.00;9.70;;;6.00;99.90;;;;;;5160776;27;20224;-81
2022/09/29 04:52:22;;;;;;;9.90;9.60;;;5.90;99.90;;;;;;5161474;27;20220;-81
2022/09/29 04:54:50;;;;;;;9.80;9.50;;;5.90;99.90;;;;;;5159210;27;20238;-82
2022/09/29 04:57:17;;;;;;;9.60;9.30;;;5.90;99.90;;;;;;5157164;27;20220;-82
2022/09/29 04:59:45;;;;;;;10.30;10.00;;;5.90;99.90;;;;;;5146957;27;20227;-81
2022/09/29 05:02:14;;;;;;;10.57;10.27;;;5.90;99.90;;;;;;5146038;27;20228;-82
2022/09/29 05:04:44;;;;;;;10.13;9.83;;;5.80;99.90;;;;;;5145654;27;20228;-82
2022/09/29 05:07:13;;;;;;;10.20;9.90;;;5.80;99.90;;;;;;5145620;27;20234;-82
2022/09/29 05:09:45;;;;;;;10.80;10.50;;;5.80;99.90;;;;;;5143686;27;20246;-82
2022/09/29 05:12:13;;;;;;;11.07;10.67;;;5.70;99.90;;;;;;5144193;27;20232;-82
2022/09/29 05:14:42;;;;;;;11.17;10.77;;;5.80;99.90;;;;;;5143960;27;20234;-81
2022/09/29 05:17:11;;;;;;;10.80;10.50;;;5.70;99.90;;;;;;5143718;27;20230;-82
2022/09/29 05:19:40;;;;;;;10.70;10.40;;;5.80;99.90;;;;;;5142942;27;20243;-82
2022/09/29 05:22:09;;;;;;;10.80;10.50;;;5.70;99.90;;;;;;5144077;27;20297;-82
2022/09/29 05:24:41;;;;;;;10.70;10.40;;;5.70;99.90;;;;;;5143004;27;20263;-83
2022/09/29 05:27:12;;;;;;;10.50;10.20;;;5.70;99.90;;;;;;5144176;27;20283;-82
2022/09/29 05:29:40;;;;;;;10.43;10.13;;;5.70;99.90;;;;;;5141132;27;20236;-81
2022/09/29 05:32:08;;;;;;;10.60;10.30;;;5.70;99.90;;;;;;5142618;27;20287;-81
2022/09/29 05:34:37;;;;;;;10.70;10.40;;;5.70;99.90;;;;;;5139380;27;20730;-82
2022/09/29 05:37:06;;;;;;;10.50;10.20;;;5.70;99.90;;;;;;5143978;27;20238;-82
2022/09/29 05:39:38;;;;;;;10.70;10.40;;;5.70;99.90;;;;;;5143001;27;20246;-81
2022/09/29 05:42:16;;;;;;;11.10;10.70;;;5.60;99.90;;;;;;5144032;27;20413;-83
2022/09/29 05:44:44;;;;;;;10.87;10.57;;;5.70;99.90;;;;;;5144771;27;20238;-84
2022/09/29 05:47:14;;;;;;;11.13;10.73;;;5.70;99.90;;;;;;5143464;27;20254;-84
2022/09/29 05:49:43;;;;;;;10.93;10.60;;;5.70;99.90;;;;;;5143610;27;20319;-83
2022/09/29 05:52:12;;;;;;;10.77;10.47;;;5.80;99.90;;;;;;5143840;27;20279;-84
2022/09/29 05:54:43;;;;;;;10.67;10.37;;;5.80;99.90;;;;;;5151113;27;20251;-84
2022/09/29 05:57:14;;;;;;;10.63;10.33;;;5.80;99.90;;;;;;5145010;27;20284;-87
2022/09/29 05:59:41;;;;;;;10.77;10.47;;;5.80;99.90;;;;;;5144869;27;20216;-84
2022/09/29 06:02:10;;;;;;;10.60;10.30;;;5.80;99.90;;;;;;5144620;27;20319;-84
2022/09/29 06:04:39;;;;;;;10.50;10.20;;;5.70;99.90;;;;;;5144444;27;20231;-85
2022/09/29 06:07:09;;;;;;;10.77;10.47;;;5.70;99.90;;;;;;5144297;27;20308;-85
2022/09/29 06:09:39;;;;;;;10.63;10.33;;;5.70;99.90;;;;;;5142770;27;20240;-85
2022/09/29 06:12:08;;;;;;;10.73;10.43;;;5.80;99.90;;;;;;5143798;27;20228;-84
2022/09/29 06:14:48;;;;;;;10.80;10.50;;;5.70;99.90;;;;;;5142499;27;20257;-85
2022/09/29 06:17:16;;;;;;;10.70;10.40;;;5.80;99.90;;;;;;5142860;27;20270;-84
2022/09/29 06:19:45;;;;;;;10.50;10.20;;;5.80;99.90;;;;;;5142523;27;20291;-84
2022/09/29 06:22:14;;;;;;;10.60;10.30;;;5.70;99.90;;;;;;5142584;27;20220;-85
2022/09/29 06:24:46;;;;;;;10.50;10.20;;;5.70;99.90;;;;;;5142467;27;20315;-84
2022/09/29 06:27:16;;;;;;;10.43;10.13;;;5.70;99.90;;;;;;5142480;27;20286;-84
2022/09/29 06:29:47;;;;;;;10.80;10.50;;;5.70;99.90;;;;;;5143808;27;20235;-83
2022/09/29 06:32:15;;;;;;;10.83;10.53;;;5.60;99.90;;;;;;5156140;27;20210;-83
2022/09/29 06:37:41;;;;;;;11.03;10.63;;;5.60;99.90;;;;;;5160102;27;20216;-84
2022/09/29 06:40:11;;;;;;;10.67;10.37;;;5.60;99.90;;;;;;5161204;27;20253;-83
2022/09/29 06:42:39;;;;;;;10.80;10.50;;;5.60;99.90;;;;;;5165929;27;20337;-83
2022/09/29 06:48:04;;;;;;;10.70;10.40;;;5.60;99.90;;;;;;5163936;27;20239;-80
2022/09/29 06:50:33;;;;;;;10.50;10.20;;;5.60;99.90;;;;;;5144280;27;20248;-81
2022/09/29 06:53:02;;;;;;;10.77;10.47;;;5.60;99.90;;;;;;5152606;27;20216;-78
2022/09/29 06:55:31;;;;;;;10.60;10.30;;;5.50;99.90;;;;;;5160131;27;20235;-81
2022/09/29 06:58:01;;;;;;;10.67;10.37;;;5.50;99.90;;;;;;5157201;27;20255;-82
2022/09/29 07:00:33;;;;;;;10.50;10.20;;;5.60;99.90;;;;;;5158118;27;20254;-84
2022/09/29 07:03:01;;;;;;;10.40;10.10;;;5.50;99.90;;;;;;5147946;27;20230;-83
2022/09/29 07:05:30;;;;;;;10.40;10.10;;;5.60;99.90;;;;;;5148061;27;20232;-84
2022/09/29 07:07:59;;;;;;;10.73;10.43;;;5.60;99.90;;;;;;5148359;27;20260;-86
2022/09/29 07:10:26;;;;;;;10.50;10.20;;;5.60;99.90;;;;;;5142425;27;20741;-78
2022/09/29 07:12:54;;;;;;;10.30;10.00;;;5.60;99.90;;;;;;5140763;27;20253;-78
2022/09/29 07:15:21;;;;;;;10.30;10.00;;;5.70;99.90;;;;;;5143967;27;20228;-85
2022/09/29 07:17:58;;;;;;;10.30;10.00;;;5.80;99.90;;;;;;5146936;27;20292;-85
2022/09/29 07:20:26;;;;;;;10.17;9.87;;;5.80;99.90;;;;;;5133819;27;20228;-82
2022/09/29 07:22:56;;;;;;;10.33;10.03;;;5.90;99.90;;;;;;5145992;27;20230;-82
2022/09/29 07:25:25;;;;;;;10.27;9.97;;;5.90;99.90;;;;;;5146981;27;20311;-82
2022/09/29 07:27:54;;;;;;;9.87;9.57;;;5.90;99.90;;;;;;5147552;27;20282;-83
2022/09/29 07:30:24;;;;;;;10.33;10.03;;;6.00;99.90;;;;;;5146387;27;20271;-83
2022/09/29 07:32:56;;;;;;;10.33;10.03;;;6.10;99.90;;;;;;5142546;27;20281;-81
2022/09/29 07:35:24;;;;;;;10.40;10.10;;;6.20;99.90;;;;;;5127196;27;20232;-82
2022/09/29 07:37:55;;;;;;;10.20;9.90;;;6.30;99.90;;;;;;5144615;27;20239;-81
2022/09/29 07:40:24;;;;;;;10.20;9.90;;;6.40;99.90;;;;;;5142509;27;20242;-79
2022/09/29 07:42:51;;;;;;;10.40;10.10;;;6.50;99.90;;;;;;5142837;27;20315;-82
2022/09/29 07:45:20;;;;;;;10.10;9.80;;;6.50;99.90;;;;;;5145533;27;20246;-82
2022/09/29 07:47:52;;;;;;;10.00;9.70;;;6.50;99.90;;;;;;5147184;27;20224;-82
2022/09/29 07:50:31;;;;;;;10.00;9.70;;;6.60;99.90;;;;;;5149846;27;20292;-83
2022/09/29 07:52:59;;;;;;;9.83;9.53;;;6.60;99.90;;;;;;5146067;27;20216;-82
2022/09/29 07:55:27;;;;;;;9.83;9.53;;;6.60;99.90;;;;;;5145913;27;20228;-82
2022/09/29 07:57:57;;;;;;;10.27;9.97;;;6.70;99.90;;;;;;5144134;27;20264;-81
2022/09/29 08:00:26;;;;;;;10.03;9.73;;;6.80;99.90;;;;;;5144392;27;20252;-81
2022/09/29 08:02:55;;;;;;;10.10;9.80;;;6.80;99.90;;;;;;5145165;27;20231;-80
2022/09/29 08:05:34;;;;;;;10.27;9.97;;;6.80;99.90;;;;;;5135732;27;20235;-82
2022/09/29 08:08:03;;;;;;;9.97;9.67;;;6.90;99.90;;;;;;5144210;27;20224;-82
2022/09/29 08:10:32;;;;;;;10.03;9.73;;;7.10;99.90;;;;;;5144637;27;20270;-81
2022/09/29 08:13:00;;;;;;;9.90;9.60;;;7.20;99.90;;;;;;5143235;27;20220;-80
2022/09/29 08:15:29;;;;;;;10.30;10.00;;;7.40;99.90;;;;;;5143532;27;20235;-79
2022/09/29 08:17:58;;;;;;;10.20;9.90;;;7.60;99.90;;;;;;5143842;27;20263;-79
2022/09/29 08:20:30;;;;;;;10.40;10.10;;;7.70;99.90;;;;;;5143277;27;20216;-79
2022/09/29 08:23:00;;;;;;;10.37;10.07;;;8.00;99.90;;;;;;5143918;27;20277;-80
2022/09/29 08:25:29;;;;;;;10.40;10.10;;;8.10;99.90;;;;;;5143209;27;20224;-80
2022/09/29 08:28:01;;;;;;;10.50;10.20;;;8.20;99.90;;;;;;5151032;27;20253;-82
2022/09/29 08:30:31;;;;;;;10.40;10.10;;;8.40;99.90;;;;;;5154133;27;20289;-82
2022/09/29 08:32:59;;;;;;;10.10;9.80;;;8.60;99.90;;;;;;5160252;27;20326;-81
2022/09/29 08:35:29;;;;;;;10.13;9.83;;;8.80;99.90;;;;;;5161627;27;20228;-81
2022/09/29 08:37:58;;;;;;;10.57;10.27;;;8.90;99.90;;;;;;5160240;27;20240;-81
2022/09/29 08:40:29;;;;;;;10.10;9.80;;;9.10;99.90;;;;;;5157742;27;20275;-80
2022/09/29 08:43:10;;;;;;;10.10;9.80;;;9.40;99.90;;;;;;5150990;27;20240;-80
2022/09/29 08:45:44;;;;;;;9.93;9.63;;;9.60;99.90;;;;;;5150258;27;20243;-80
2022/09/29 08:48:23;;;;;;;9.90;9.60;;;9.90;99.90;;;;;;5144121;27;20230;-80
2022/09/29 08:51:00;;;;;;;10.10;9.80;;;10.20;99.90;;;;;;5143148;27;20235;-81
2022/09/29 08:53:32;;;;;;;10.10;9.80;;;10.30;99.90;;;;;;5135939;27;20296;-80
2022/09/29 08:56:09;;;;;;;9.97;9.67;;;10.40;99.90;;;;;;5141124;27;20228;-82
2022/09/29 08:58:39;;;;;;;10.20;9.90;;;10.50;99.90;;;;;;5144398;27;20314;-81
2022/09/29 09:01:24;;;;;;;10.03;9.73;;;10.80;99.90;;;;;;5144076;27;20239;-81
2022/09/29 09:04:45;;;;;;;9.80;9.50;;;11.00;99.90;;;;;;5142007;27;20752;-80
2022/09/29 09:07:30;;;;;;;9.90;9.60;;;11.20;99.90;;;;;;5143513;27;20239;-80
2022/09/29 09:10:20;;;;;;;9.50;9.20;;;11.30;99.90;;;;;;5142424;27;20240;-80
2022/09/29 09:13:20;;;;;;;9.50;9.20;;;11.40;99.90;;;;;;5142673;27;20312;-80
2022/09/29 09:16:05;;;;;;;9.60;9.30;;;11.50;99.90;;;;;;5142342;27;20230;-80
2022/09/29 09:19:02;;;;;;;10.03;9.73;;;11.70;99.90;;;;;;5144122;27;20238;-81
2022/09/29 09:21:46;;;;;;;9.93;9.63;;;12.00;99.90;;;;;;5143368;27;20231;-80
2022/09/29 09:27:21;;;;;;;10.00;9.70;;;12.30;99.90;;;;;;5140833;27;20212;-81
2022/09/29 09:29:58;;;;;;;9.90;9.60;;;12.20;99.90;;;;;;5144668;27;20235;-83
2022/09/29 09:32:37;;;;;;;9.90;9.60;;;12.30;99.90;;;;;;5146059;27;20276;-81
2022/09/29 09:35:25;;;;;;;9.67;9.37;;;12.20;99.90;;;;;;5152403;27;20292;-82
2022/09/29 09:37:54;;;;;;;9.80;9.50;;;12.10;99.90;;;;;;5147487;27;20224;-80
2022/09/29 09:40:50;;;;;;;10.03;9.73;;;12.00;99.90;;;;;;5144978;27;20299;-81
2022/09/29 09:43:24;;;;;;;10.00;9.70;;;11.90;99.90;;;;;;5142408;27;20315;-87
2022/09/29 09:45:59;;;;;;;9.97;9.67;;;11.80;99.90;;;;;;5142054;27;20231;-81
2022/09/29 09:48:35;;;;;;;9.90;9.60;;;11.80;99.90;;;;;;5142288;27;20222;-80
2022/09/29 09:51:31;;;;;;;9.80;9.50;;;11.70;99.90;;;;;;5142239;27;20695;-81
2022/09/29 09:54:03;;;;;;;9.80;9.50;;;11.70;99.90;;;;;;5141740;27;20219;-81
2022/09/29 09:56:49;;;;;;;10.10;9.80;;;11.80;99.90;;;;;;5141229;27;20699;-82
2022/09/29 09:59:35;;;;;;;9.70;9.40;;;11.80;99.90;;;;;;5141729;27;20274;-81
2022/09/29 10:02:04;;;;;;;9.60;9.30;;;11.90;99.90;;;;;;5141512;27;20235;-82
2022/09/29 10:04:34;;;;;;;9.63;9.33;;;12.00;99.90;;;;;;5142263;27;20239;-82
2022/09/29 10:07:04;;;;;;;9.30;9.00;;;12.00;99.90;;;;;;5141359;27;20232;-81
2022/09/29 10:09:33;;;;;;;9.43;9.13;;;12.10;99.90;;;;;;5140835;27;20284;-81
2022/09/29 10:12:04;;;;;;;9.70;9.40;;;12.20;99.90;;;;;;5141634;27;20230;-82
2022/09/29 10:14:34;;;;;;;9.60;9.30;;;12.30;99.90;;;;;;5140680;27;20284;-83
2022/09/29 10:17:11;;;;;;;9.90;9.60;;;12.40;99.90;;;;;;5140027;27;20257;-82
2022/09/29 10:19:59;;;;;;;9.60;9.30;;;12.50;99.90;;;;;;5140633;27;20246;-82
2022/09/29 10:22:28;;;;;;;9.90;9.60;;;12.70;99.90;;;;;;5141387;27;20287;-81
2022/09/29 10:25:14;;;;;;;9.73;9.43;;;12.90;99.90;;;;;;5140429;27;20238;-81
2022/09/29 10:27:52;;;;;;;9.87;9.57;;;13.00;99.90;;;;;;5140977;27;20255;-79
2022/09/29 10:30:22;;;;;;;10.30;10.00;;;13.10;99.90;;;;;;5140281;27;20235;-80
2022/09/29 10:32:53;;;;;;;9.77;9.47;;;13.30;99.90;;;;;;5144845;27;20227;-80
2022/09/29 10:35:27;;;;;;;9.73;9.43;;;13.40;99.90;;;;;;5144950;27;20232;-80
2022/09/29 10:38:02;;;;;;;9.93;9.63;;;13.40;99.90;;;;;;5141475;27;20236;-81
2022/09/29 10:40:29;;;;;;;10.00;9.70;;;13.40;99.90;;;;;;5140597;27;20266;-80
2022/09/29 10:43:25;;;;;;;10.03;9.73;;;13.60;99.90;;;;;;5140944;27;20220;-81
2022/09/29 10:45:57;;;;;;;9.80;9.50;;;13.70;99.90;;;;;;5140096;27;20236;-82
2022/09/29 10:48:32;;;;;;;9.80;9.50;;;13.80;99.90;;;;;;5141103;27;20293;-80
2022/09/29 10:51:03;;;;;;;10.00;9.70;;;13.70;99.90;;;;;;5140151;27;20211;-79
2022/09/29 10:53:38;;;;;;;10.10;9.80;;;13.80;99.90;;;;;;5140775;27;20224;-79
2022/09/29 10:56:17;;;;;;;10.20;9.90;;;13.90;99.90;;;;;;5140370;27;20216;-80
2022/09/29 10:58:56;;;;;;;9.90;9.60;;;13.90;99.90;;;;;;5140255;27;20380;-80
2022/09/29 11:01:26;;;;;;;10.20;9.90;;;13.90;99.90;;;;;;5139701;27;20242;-79
2022/09/29 11:04:00;;;;;;;10.23;9.93;;;13.90;99.90;;;;;;5140028;27;20239;-81
2022/09/29 11:06:31;;;;;;;10.50;10.20;;;14.00;99.90;;;;;;5139132;27;20228;-80
2022/09/29 11:09:04;;;;;;;10.30;10.00;;;14.10;99.90;;;;;;5138946;27;20271;-79
2022/09/29 11:11:35;;;;;;;10.47;10.17;;;14.40;99.90;;;;;;5139044;27;20232;-80
2022/09/29 11:14:04;;;;;;;10.33;10.03;;;14.70;99.90;;;;;;5139307;27;20224;-79
2022/09/29 11:16:35;;;;;;;10.20;9.90;;;14.90;99.90;;;;;;5139409;27;20228;-80
2022/09/29 11:19:09;;;;;;;10.50;10.20;;;15.00;99.90;;;;;;5138432;27;20227;-80
2022/09/29 11:22:24;;;;;;;10.70;10.40;;;15.10;99.90;;;;;;5136148;27;20239;-80
2022/09/29 11:25:10;;;;;;;10.47;10.17;;;15.20;99.90;;;;;;5138614;27;20231;-80
2022/09/29 11:27:55;;;;;;;10.18;9.88;;;15.30;99.90;;;;;;5140105;27;20321;-80
2022/09/29 11:30:29;;;;;;;10.30;10.00;;;15.30;99.90;;;;;;5140253;27;20236;-79
2022/09/29 11:33:19;;;;;;;10.30;10.00;;;15.30;99.90;;;;;;5121480;28;20228;-79
2022/09/29 11:35:57;;;;;;;10.50;10.20;;;15.20;99.90;;;;;;5141755;27;20232;-81
2022/09/29 11:38:56;;;;;;;10.20;9.90;;;15.20;99.90;;;;;;5145299;27;20224;-81
2022/09/29 11:42:01;;;;;;;10.23;9.93;;;15.30;99.90;;;;;;5144608;27;20244;-82
2022/09/29 11:44:58;;;;;;;10.27;9.98;;;15.20;99.90;;;;;;5144641;27;20227;-82
2022/09/29 11:48:09;;;;;;;9.70;9.40;;;15.30;99.90;;;;;;5146478;27;20224;-82
2022/09/29 11:50:50;;;;;;;10.00;9.70;;;15.20;99.90;;;;;;5131727;27;20240;-82
2022/09/29 11:53:42;;;;;;;9.63;9.33;;;15.00;99.90;;;;;;5145110;27;20228;-81
2022/09/29 11:56:31;;;;;;;9.70;9.40;;;15.00;99.90;;;;;;5145687;27;20251;-82
2022/09/29 11:59:18;;;;;;;9.73;9.43;;;14.90;99.90;;;;;;5146517;27;20232;-83
2022/09/29 12:02:08;;;;;;;9.73;9.43;;;14.80;99.90;;;;;;5146598;27;20271;-82
2022/09/29 12:04:52;;;;;;;10.00;9.70;;;14.80;99.90;;;;;;5144694;27;20259;-82
2022/09/29 12:07:39;;;;;;;9.90;9.60;;;14.70;99.90;;;;;;5145744;27;20277;-82
2022/09/29 12:10:28;;;;;;;9.80;9.50;;;14.70;99.90;;;;;;5144170;27;20235;-82
2022/09/29 12:13:07;;;;;;;9.83;9.53;;;14.70;99.90;;;;;;5146479;27;20227;-80
2022/09/29 12:15:48;;;;;;;9.97;9.67;;;14.70;99.90;;;;;;5145452;27;20228;-82
2022/09/29 12:18:21;;;;;;;9.87;9.57;;;14.60;99.90;;;;;;5144646;27;20232;-81
2022/09/29 12:21:00;;;;;;;9.90;9.60;;;14.50;99.90;;;;;;5144523;27;20247;-81
2022/09/29 12:23:31;;;;;;;9.60;9.30;;;14.50;99.90;;;;;;5137046;27;20234;-83
2022/09/29 12:26:09;;;;;;;10.03;9.73;;;14.50;99.90;;;;;;5143557;27;20220;-83
2022/09/29 12:28:46;;;;;;;10.00;9.70;;;14.50;99.90;;;;;;5143783;27;20754;-82
2022/09/29 12:31:22;;;;;;;10.00;9.70;;;14.40;99.90;;;;;;5145268;27;20319;-82
2022/09/29 12:33:54;;;;;;;9.57;9.27;;;14.30;99.90;;;;;;5159449;27;20322;-80
2022/09/29 12:36:45;;;;;;;9.70;9.40;;;14.30;99.90;;;;;;5162297;27;20240;-80
2022/09/29 12:39:36;;;;;;;9.90;9.60;;;14.20;99.90;;;;;;5162589;27;20204;-83
2022/09/29 12:42:45;;;;;;;9.57;9.27;;;14.00;99.90;;;;;;5162597;27;20256;-81
2022/09/29 12:45:22;;;;;;;9.87;9.57;;;13.90;99.90;;;;;;5161907;27;20271;-80
2022/09/29 12:48:16;;;;;;;9.87;9.57;;;13.70;99.90;;;;;;5150496;27;20227;-84
2022/09/29 12:50:53;;;;;;;10.17;9.87;;;13.40;99.90;;;;;;5147428;27;20228;-83
2022/09/29 12:53:34;;;;;;;9.63;9.33;;;13.30;99.90;;;;;;5146732;27;20228;-83
2022/09/29 12:56:11;;;;;;;9.90;9.60;;;13.10;99.90;;;;;;5144476;27;20247;-82
2022/09/29 12:58:48;;;;;;;9.80;9.50;;;12.90;99.90;;;;;;5147715;27;20247;-82
2022/09/29 13:01:30;;;;;;;10.10;9.80;;;12.70;99.90;;;;;;5161158;27;20335;-82
2022/09/29 13:04:34;;;;;;;9.90;9.60;;;12.60;99.90;;;;;;5132196;27;20236;-83
2022/09/29 13:07:55;;;;;;;10.30;10.00;;;12.50;99.90;;;;;;5131815;27;20248;-83
2022/09/29 13:11:17;;;;;;;9.90;9.60;;;12.30;99.90;;;;;;5123521;27;20238;-83
2022/09/29 13:14:04;;;;;;;9.80;9.50;;;12.20;99.90;;;;;;5145805;27;20228;-84
2022/09/29 13:16:50;;;;;;;9.43;9.13;;;12.10;99.90;;;;;;5143779;27;20326;-83
2022/09/29 13:19:54;;;;;;;9.50;9.20;;;12.10;99.90;;;;;;5143677;27;20232;-83
2022/09/29 13:23:11;;;;;;;9.43;9.13;;;12.00;99.90;;;;;;5143531;27;20330;-84
2022/09/29 13:25:57;;;;;;;9.73;9.43;;;12.00;99.90;;;;;;5143015;27;20207;-81
2022/09/29 13:28:34;;;;;;;9.80;9.50;;;12.00;99.90;;;;;;5142639;27;20231;-82
2022/09/29 13:31:06;;;;;;;9.53;9.23;;;12.10;99.90;;;;;;5143710;27;20235;-84
2022/09/29 13:33:34;;;;;;;9.80;9.50;;;12.20;99.90;;;;;;5141827;27;20228;-83
2022/09/29 13:36:02;;;;;;;9.90;9.60;;;12.30;99.90;;;;;;5143679;27;20212;-83
2022/09/29 13:38:33;;;;;;;10.00;9.70;;;12.30;99.90;;;;;;5143609;27;20228;-84